createdAt,value
2022-09-29T00:02:20.229Z,0.53
2022-09-29T00:05:23.488Z,0.70
2022-09-29T00:08:29.299Z,0.80
2022-09-29T00:11:32.209Z,0.60
2022-09-29T00:14:35.114Z,1.07
2022-09-29T00:17:38.002Z,0.50
2022-09-29T00:20:42.324Z,0.70
2022-09-29T00:23:47.519Z,1.07
2022-09-29T00:26:50.469Z,0.90
2022-09-29T00:29:53.755Z,1.77
2022-09-29T00:32:56.628Z,1.20
2022-09-29T00:36:01.593Z,1.67
2022-09-29T00:39:05.913Z,1.10
2022-09-29T00:42:11.315Z,1.63
2022-09-29T00:45:21.541Z,1.00
2022-09-29T00:48:31.410Z,1.00
2022-09-29T00:51:37.326Z,1.13
2022-09-29T00:54:45.447Z,2.63
2022-09-29T00:57:52.334Z,1.20
2022-09-29T01:00:55.455Z,0.90
2022-09-29T01:04:02.100Z,1.00
2022-09-29T01:07:05.127Z,1.90
2022-09-29T01:10:10.402Z,1.10
2022-09-29T01:13:13.518Z,0.80
2022-09-29T01:16:16.562Z,0.70
2022-09-29T01:19:27.552Z,3.03
2022-09-29T01:23:12.599Z,0.63
2022-09-29T01:26:44.460Z,0.50
2022-09-29T01:30:06.317Z,0.80
2022-09-29T01:33:24.734Z,0.83
2022-09-29T01:36:37.916Z,0.73
2022-09-29T01:39:45.134Z,1.10
2022-09-29T01:42:56.530Z,0.70
2022-09-29T01:46:04.008Z,0.83
2022-09-29T01:49:10.340Z,0.90
2022-09-29T01:52:16.735Z,0.60
2022-09-29T01:55:22.621Z,1.20
2022-09-29T01:58:29.117Z,0.60
2022-09-29T02:01:37.498Z,0.60
2022-09-29T02:04:45.392Z,0.77
2022-09-29T02:07:49.901Z,0.80
2022-09-29T02:10:58.610Z,0.60
2022-09-29T02:14:12.085Z,0.73
2022-09-29T02:17:19.825Z,0.50
2022-09-29T02:20:24.385Z,0.77
2022-09-29T02:23:27.497Z,2.83
2022-09-29T02:26:34.390Z,1.10
2022-09-29T02:29:38.719Z,1.03
2022-09-29T02:32:41.668Z,1.00
2022-09-29T02:35:50.290Z,0.70
2022-09-29T02:38:57.220Z,0.83
2022-09-29T02:42:10.303Z,0.83
2022-09-29T02:45:26.564Z,1.83
2022-09-29T02:48:46.547Z,1.30
2022-09-29T02:51:56.740Z,1.30
2022-09-29T02:55:08.659Z,1.60
2022-09-29T02:58:16.528Z,1.60
2022-09-29T03:01:19.678Z,3.27
2022-09-29T03:04:24.875Z,1.40
2022-09-29T03:07:29.086Z,1.80
2022-09-29T03:10:31.939Z,1.20
2022-09-29T03:13:34.807Z,2.10
2022-09-29T03:16:37.978Z,1.00
2022-09-29T03:19:41.069Z,2.97
2022-09-29T03:22:45.842Z,1.87
2022-09-29T03:25:48.719Z,1.17
2022-09-29T03:28:51.620Z,0.87
2022-09-29T03:31:54.613Z,1.00
2022-09-29T03:34:57.537Z,1.43
2022-09-29T03:38:02.071Z,1.43
2022-09-29T03:41:05.388Z,1.10
2022-09-29T03:44:08.261Z,1.57
2022-09-29T03:47:11.160Z,1.57
2022-09-29T03:50:14.420Z,1.60
2022-09-29T03:53:19.522Z,1.63
2022-09-29T03:56:22.408Z,1.20
2022-09-29T03:59:25.259Z,1.30
2022-09-29T04:02:28.199Z,1.20
2022-09-29T04:05:31.766Z,1.00
2022-09-29T04:08:38.569Z,1.17
2022-09-29T04:11:41.512Z,1.73
2022-09-29T04:14:44.368Z,1.30
2022-09-29T04:17:47.261Z,1.77
2022-09-29T04:20:50.287Z,1.60
2022-09-29T04:23:54.557Z,1.40
2022-09-29T04:26:57.433Z,1.43
2022-09-29T04:30:00.312Z,1.23
2022-09-29T04:33:03.235Z,1.27
2022-09-29T04:36:07.336Z,1.40
2022-09-29T04:39:11.844Z,2.40
2022-09-29T04:42:14.761Z,1.70
2022-09-29T04:45:17.793Z,0.77
2022-09-29T04:48:20.664Z,1.27
2022-09-29T04:51:23.565Z,1.40
2022-09-29T04:54:36.793Z,1.90
2022-09-29T04:57:42.391Z,1.50
2022-09-29T05:00:45.298Z,1.00
2022-09-29T05:03:48.160Z,1.13
2022-09-29T05:06:51.337Z,0.90
2022-09-29T05:09:55.557Z,1.43
2022-09-29T05:12:58.594Z,2.33
2022-09-29T05:16:02.412Z,1.30
2022-09-29T05:19:05.527Z,1.50
2022-09-29T05:22:08.504Z,1.90
2022-09-29T05:25:12.858Z,1.97
2022-09-29T05:28:16.350Z,2.30
2022-09-29T05:31:19.778Z,1.33
2022-09-29T05:34:22.708Z,1.60
2022-09-29T05:37:25.571Z,1.53
2022-09-29T05:40:29.831Z,2.03
2022-09-29T05:43:32.841Z,1.97
2022-09-29T05:46:35.981Z,3.00
2022-09-29T05:49:39.157Z,1.70
2022-09-29T05:52:42.844Z,1.93
2022-09-29T05:55:47.065Z,1.63
2022-09-29T05:58:50.163Z,2.87
2022-09-29T06:01:53.108Z,1.67
2022-09-29T06:04:55.987Z,2.50
2022-09-29T06:07:58.966Z,2.77
2022-09-29T06:11:08.623Z,2.63
2022-09-29T06:14:11.517Z,1.97
2022-09-29T06:17:15.206Z,2.63
2022-09-29T06:20:18.525Z,2.73
2022-09-29T06:23:21.400Z,3.70
2022-09-29T06:26:26.993Z,4.43
2022-09-29T06:29:29.907Z,4.60
2022-09-29T06:32:34.168Z,4.63
2022-09-29T06:35:54.649Z,3.40
2022-09-29T06:38:58.077Z,2.97
2022-09-29T06:42:03.236Z,2.50
2022-09-29T06:45:07.097Z,3.13
2022-09-29T06:48:11.312Z,3.20
2022-09-29T06:51:14.801Z,3.40
2022-09-29T06:54:20.849Z,2.60
2022-09-29T06:57:25.130Z,2.93
2022-09-29T07:00:28.119Z,2.13
2022-09-29T07:03:31.574Z,2.60
2022-09-29T07:06:34.837Z,2.70
2022-09-29T07:09:37.706Z,4.40
2022-09-29T07:12:44.556Z,2.67
2022-09-29T07:15:48.118Z,4.07
2022-09-29T07:18:51.284Z,2.60
2022-09-29T07:21:54.195Z,2.77
2022-09-29T07:24:57.317Z,3.00
2022-09-29T07:28:02.080Z,9.77
2022-09-29T07:31:14.449Z,3.73
2022-09-29T07:34:18.448Z,2.77
2022-09-29T07:37:21.281Z,2.60
2022-09-29T07:40:25.350Z,3.53
2022-09-29T07:43:30.484Z,4.27
2022-09-29T07:46:33.745Z,2.27
2022-09-29T07:49:36.870Z,3.17
2022-09-29T07:52:39.911Z,1.80
2022-09-29T07:55:42.788Z,2.03
2022-09-29T07:58:49.846Z,2.10
2022-09-29T08:01:53.266Z,2.10
2022-09-29T08:05:00.750Z,2.80
2022-09-29T08:08:06.600Z,2.00
2022-09-29T08:11:17.356Z,2.20
2022-09-29T08:14:27.251Z,1.67
2022-09-29T08:17:30.139Z,1.03
2022-09-29T08:20:33.029Z,0.50
2022-09-29T08:23:37.280Z,0.70
2022-09-29T08:26:43.755Z,1.63
2022-09-29T08:29:48.689Z,1.10
2022-09-29T08:32:55.510Z,1.30
2022-09-29T08:35:59.485Z,1.13
2022-09-29T08:39:02.411Z,0.83
2022-09-29T08:42:13.875Z,1.47
2022-09-29T08:45:25.000Z,2.00
2022-09-29T08:48:32.636Z,1.80
2022-09-29T08:51:42.742Z,1.30
2022-09-29T08:54:49.366Z,0.70
2022-09-29T08:57:58.055Z,0.60
2022-09-29T09:01:15.045Z,0.70
2022-09-29T09:04:44.060Z,0.90
2022-09-29T09:07:53.834Z,0.60
2022-09-29T09:11:04.733Z,0.60
2022-09-29T09:14:18.141Z,0.40
2022-09-29T09:17:34.914Z,0.60
2022-09-29T09:20:45.294Z,0.50
2022-09-29T09:23:58.261Z,0.60
2022-09-29T09:27:05.671Z,0.40
2022-09-29T09:30:15.731Z,1.23
2022-09-29T09:33:31.446Z,1.93
2022-09-29T09:36:37.394Z,1.47
2022-09-29T09:39:48.064Z,0.87
2022-09-29T09:42:58.408Z,0.60
2022-09-29T09:46:05.107Z,0.63
2022-09-29T09:49:18.648Z,0.60
2022-09-29T09:52:27.151Z,0.70
2022-09-29T09:55:34.909Z,0.70
2022-09-29T09:59:05.539Z,1.20
2022-09-29T10:02:17.991Z,1.73
2022-09-29T10:05:26.219Z,1.97
2022-09-29T10:08:38.422Z,0.83
2022-09-29T10:11:44.068Z,2.60
2022-09-29T10:14:54.066Z,1.30
2022-09-29T10:18:05.677Z,1.20
2022-09-29T10:21:21.892Z,0.83
2022-09-29T10:24:28.422Z,1.67
2022-09-29T10:27:31.757Z,1.00
2022-09-29T10:30:36.442Z,1.93
2022-09-29T10:33:47.316Z,0.80
2022-09-29T10:36:54.139Z,0.63
2022-09-29T10:40:13.823Z,1.77
2022-09-29T10:43:25.184Z,0.70
2022-09-29T10:46:38.200Z,0.70
2022-09-29T10:49:41.357Z,1.10
2022-09-29T10:52:50.272Z,0.70
2022-09-29T10:55:55.722Z,0.73
2022-09-29T10:59:05.652Z,0.77
2022-09-29T11:02:22.731Z,0.83
2022-09-29T11:05:25.886Z,0.80
2022-09-29T11:08:31.190Z,1.13
2022-09-29T11:11:38.847Z,0.77
2022-09-29T11:14:43.255Z,0.80
2022-09-29T11:17:51.455Z,1.30
2022-09-29T11:21:02.442Z,1.30
2022-09-29T11:24:12.312Z,0.83
2022-09-29T11:27:28.710Z,0.90
2022-09-29T11:30:43.983Z,1.83
2022-09-29T11:33:59.146Z,1.67
2022-09-29T11:37:10.672Z,1.67
2022-09-29T11:40:22.415Z,1.27
2022-09-29T11:43:40.204Z,1.60
2022-09-29T11:46:58.148Z,1.70
2022-09-29T11:50:20.605Z,1.13
2022-09-29T11:53:47.726Z,1.10
2022-09-29T11:56:56.811Z,1.40
2022-09-29T12:00:08.422Z,1.03
2022-09-29T12:03:25.588Z,1.40
2022-09-29T12:07:05.135Z,1.30
2022-09-29T12:10:37.414Z,1.33
2022-09-29T12:13:50.090Z,0.77
2022-09-29T12:16:58.770Z,1.30
2022-09-29T12:20:07.361Z,1.00
2022-09-29T12:23:15.135Z,1.13
2022-09-29T12:26:21.630Z,1.30
2022-09-29T12:29:34.452Z,1.00
2022-09-29T12:32:42.553Z,1.67
2022-09-29T12:35:51.804Z,2.13
2022-09-29T12:39:01.704Z,0.80
2022-09-29T12:42:27.920Z,1.00
2022-09-29T12:45:39.752Z,1.30
2022-09-29T12:48:52.852Z,1.40
2022-09-29T12:51:58.402Z,1.47
2022-09-29T12:55:06.182Z,1.63
2022-09-29T12:58:16.955Z,1.43
2022-09-29T13:01:27.861Z,1.70
2022-09-29T13:04:55.022Z,0.83
2022-09-29T13:08:19.523Z,1.27
2022-09-29T13:11:56.465Z,0.97
2022-09-29T13:15:17.627Z,1.60
2022-09-29T13:18:54.052Z,2.30
2022-09-29T13:22:24.025Z,1.67
2022-09-29T13:25:33.955Z,1.30
2022-09-29T13:28:42.627Z,1.13
2022-09-29T13:31:47.338Z,1.60
2022-09-29T13:34:58.530Z,2.33
2022-09-29T13:38:06.778Z,1.47
2022-09-29T13:41:17.896Z,1.73
2022-09-29T13:44:28.499Z,1.57
2022-09-29T13:47:35.201Z,2.17
2022-09-29T13:50:44.861Z,4.00
2022-09-29T13:53:47.795Z,2.07
2022-09-29T13:56:53.235Z,5.80
2022-09-29T14:00:21.553Z,2.40
2022-09-29T14:03:33.629Z,2.73
2022-09-29T14:06:48.371Z,2.60
2022-09-29T14:09:52.360Z,4.40
2022-09-29T14:13:00.575Z,1.87
2022-09-29T14:16:30.367Z,2.07
2022-09-29T14:19:42.927Z,2.43
2022-09-29T14:23:02.055Z,2.30
2022-09-29T14:26:04.957Z,3.00
2022-09-29T14:29:20.071Z,2.73
2022-09-29T14:32:33.316Z,4.17
2022-09-29T14:35:39.005Z,3.17
2022-09-29T14:38:57.793Z,3.10
2022-09-29T14:42:17.771Z,2.87
2022-09-29T14:45:38.245Z,2.30
2022-09-29T14:49:13.534Z,3.97
2022-09-29T14:52:26.817Z,3.40
2022-09-29T14:55:39.141Z,2.43
2022-09-29T14:59:00.128Z,3.73
2022-09-29T15:02:21.526Z,3.43
2022-09-29T15:05:31.101Z,2.97
2022-09-29T15:08:36.518Z,3.27
2022-09-29T15:11:46.444Z,5.70
2022-09-29T15:14:50.176Z,7.33
2022-09-29T15:18:01.353Z,6.63
2022-09-29T15:21:12.689Z,3.83
2022-09-29T15:24:32.079Z,4.60
2022-09-29T15:27:37.664Z,4.13
2022-09-29T15:30:40.984Z,3.70
2022-09-29T15:33:44.731Z,4.37
2022-09-29T15:36:51.251Z,5.43
2022-09-29T15:39:55.013Z,4.80
2022-09-29T15:42:59.243Z,4.43
2022-09-29T15:46:03.779Z,3.87
2022-09-29T15:49:14.621Z,7.20
2022-09-29T15:52:18.765Z,6.23
2022-09-29T15:55:24.689Z,5.83
2022-09-29T15:58:45.068Z,4.20
2022-09-29T16:01:48.377Z,4.37
2022-09-29T16:04:54.922Z,4.67
2022-09-29T16:08:03.167Z,4.57
2022-09-29T16:11:09.128Z,5.27
2022-09-29T16:14:21.492Z,4.77
2022-09-29T16:17:25.896Z,4.17
2022-09-29T16:20:31.542Z,4.90
2022-09-29T16:23:38.239Z,4.13
2022-09-29T16:26:44.499Z,3.40
2022-09-29T16:30:18.391Z,4.43
2022-09-29T16:33:23.721Z,3.57
2022-09-29T16:36:28.492Z,3.90
2022-09-29T16:39:33.947Z,4.03
2022-09-29T16:42:37.495Z,3.53
2022-09-29T16:45:42.117Z,4.07
2022-09-29T16:48:46.531Z,4.47
2022-09-29T16:51:51.214Z,4.67
2022-09-29T16:54:55.790Z,5.50
2022-09-29T16:58:01.222Z,5.37
2022-09-29T17:01:05.901Z,4.77
2022-09-29T17:04:09.182Z,6.00
2022-09-29T17:07:16.663Z,4.97
2022-09-29T17:10:21.561Z,6.17
2022-09-29T17:13:25.580Z,5.77
2022-09-29T17:16:30.166Z,6.50
2022-09-29T17:19:33.049Z,6.13
2022-09-29T17:22:38.089Z,7.37
2022-09-29T17:25:43.182Z,7.60
2022-09-29T17:28:45.217Z,7.17
2022-09-29T17:31:49.438Z,6.83
2022-09-29T17:34:52.401Z,6.70
2022-09-29T17:37:56.336Z,7.33
2022-09-29T17:41:03.665Z,8.23
2022-09-29T17:44:08.748Z,7.57
2022-09-29T17:47:27.331Z,8.00
2022-09-29T17:50:36.493Z,8.03
2022-09-29T17:53:39.635Z,9.77
2022-09-29T17:56:43.987Z,10.30
2022-09-29T17:59:47.184Z,9.77
2022-09-29T18:02:52.154Z,20.03
2022-09-29T18:05:58.630Z,26.70
2022-09-29T18:09:01.741Z,29.10
2022-09-29T18:12:04.954Z,24.07
2022-09-29T18:15:10.222Z,20.80
2022-09-29T18:18:17.343Z,15.47
2022-09-29T18:21:22.178Z,12.03
2022-09-29T18:24:25.096Z,9.77
2022-09-29T18:27:28.436Z,10.37
2022-09-29T18:30:39.377Z,11.97
2022-09-29T18:33:43.623Z,12.47
2022-09-29T18:36:46.804Z,12.07
2022-09-29T18:39:49.982Z,13.77
2022-09-29T18:42:55.880Z,12.73
2022-09-29T18:45:59.018Z,12.73
2022-09-29T18:49:04.515Z,13.93
2022-09-29T18:52:09.063Z,12.00
2022-09-29T18:55:12.223Z,13.13
2022-09-29T18:58:16.880Z,11.37
2022-09-29T19:01:25.354Z,10.93
2022-09-29T19:04:30.227Z,11.30
2022-09-29T19:07:33.126Z,10.43
2022-09-29T19:10:37.148Z,11.73
2022-09-29T19:13:41.754Z,11.77
2022-09-29T19:16:44.908Z,10.53
2022-09-29T19:19:50.406Z,10.17
2022-09-29T19:22:54.227Z,10.80
2022-09-29T19:25:58.373Z,9.33
2022-09-29T19:29:01.336Z,9.83
2022-09-29T19:32:04.537Z,10.07
2022-09-29T19:35:11.454Z,9.40
2022-09-29T19:38:14.475Z,9.53
2022-09-29T19:41:20.498Z,9.37
2022-09-29T19:44:23.387Z,10.20
2022-09-29T19:47:26.285Z,9.63
2022-09-29T19:50:48.285Z,10.10
2022-09-29T19:54:10.254Z,8.93
2022-09-29T19:57:16.163Z,9.77
2022-09-29T20:00:21.832Z,9.80
2022-09-29T20:03:24.736Z,8.20
2022-09-29T20:06:29.131Z,8.20
2022-09-29T20:09:32.579Z,9.00
2022-09-29T20:12:36.968Z,8.03
2022-09-29T20:15:45.804Z,9.00
2022-09-29T20:18:49.120Z,8.20
2022-09-29T20:21:55.906Z,8.03
2022-09-29T20:24:58.935Z,8.43
2022-09-29T20:28:02.174Z,8.67
2022-09-29T20:31:07.493Z,8.77
2022-09-29T20:34:11.200Z,9.73
2022-09-29T20:37:16.208Z,8.93
2022-09-29T20:40:19.110Z,8.77
2022-09-29T20:43:22.379Z,8.50
2022-09-29T20:46:27.800Z,9.00
2022-09-29T20:49:31.006Z,8.13
2022-09-29T20:52:35.231Z,8.40
2022-09-29T20:55:38.125Z,10.20
2022-09-29T20:58:44.060Z,10.37
2022-09-29T21:01:48.658Z,11.13
2022-09-29T21:04:51.699Z,10.97
2022-09-29T21:07:55.890Z,11.53
2022-09-29T21:11:03.398Z,12.00
2022-09-29T21:14:09.144Z,12.40
2022-09-29T21:17:12.371Z,11.93
2022-09-29T21:20:15.477Z,11.57
2022-09-29T21:23:19.820Z,11.27
2022-09-29T21:26:24.476Z,10.97
2022-09-29T21:29:27.960Z,11.10
2022-09-29T21:32:30.880Z,11.33
2022-09-29T21:35:33.912Z,11.70
2022-09-29T21:38:39.755Z,16.23
2022-09-29T21:41:44.145Z,14.90
2022-09-29T21:44:47.109Z,13.60
2022-09-29T21:48:07.247Z,13.50
2022-09-29T21:51:12.715Z,11.13
2022-09-29T21:54:19.009Z,14.10
2022-09-29T21:57:21.991Z,12.80
2022-09-29T22:00:24.862Z,12.03
2022-09-29T22:03:31.361Z,12.50
2022-09-29T22:06:35.877Z,12.50
2022-09-29T22:09:40.409Z,10.87
2022-09-29T22:12:43.310Z,12.37
2022-09-29T22:15:47.390Z,13.27
2022-09-29T22:19:11.782Z,13.73
2022-09-29T22:22:13.469Z,14.00
2022-09-29T22:25:18.082Z,12.83
2022-09-29T22:28:20.948Z,13.60
2022-09-29T22:31:24.283Z,14.97
2022-09-29T22:34:27.254Z,15.07
2022-09-29T22:37:31.290Z,16.50
2022-09-29T22:40:36.432Z,16.80
2022-09-29T22:43:39.972Z,14.67
2022-09-29T22:46:42.896Z,16.37
2022-09-29T22:49:45.804Z,14.20
2022-09-29T22:52:48.905Z,12.57
2022-09-29T22:55:53.361Z,13.73
2022-09-29T22:59:01.091Z,12.63
2022-09-29T23:02:04.434Z,12.10
2022-09-29T23:05:07.743Z,13.33
2022-09-29T23:08:11.977Z,12.03
2022-09-29T23:11:20.968Z,12.50
2022-09-29T23:14:23.817Z,12.43
2022-09-29T23:17:29.784Z,13.17
2022-09-29T23:20:32.646Z,12.90
2022-09-29T23:23:36.043Z,12.00
2022-09-29T23:26:40.277Z,12.90
2022-09-29T23:29:43.138Z,11.50
2022-09-29T23:32:46.083Z,12.83
2022-09-29T23:35:49.441Z,19.80
2022-09-29T23:39:10.941Z,12.87
2022-09-29T23:42:15.626Z,12.93
2022-09-29T23:45:18.632Z,11.17
2022-09-29T23:48:22.308Z,11.63
2022-09-29T23:51:25.749Z,12.50
2022-09-29T23:54:29.843Z,12.93
2022-09-29T23:57:34.764Z,12.60
